createdAt,value
2024-05-09T00:01:21.392Z,89.98
2024-05-09T00:03:51.508Z,89.94
2024-05-09T00:06:21.271Z,90.02
2024-05-09T00:08:51.459Z,90.29
2024-05-09T00:11:23.202Z,90.01
2024-05-09T00:13:52.931Z,89.85
2024-05-09T00:16:22.599Z,89.82
2024-05-09T00:18:52.615Z,90.02
2024-05-09T00:21:23.905Z,89.90
2024-05-09T00:23:53.605Z,89.33
2024-05-09T00:26:23.386Z,89.11
2024-05-09T00:28:53.154Z,89.27
2024-05-09T00:31:22.848Z,89.39
2024-05-09T00:33:52.831Z,89.41
2024-05-09T00:36:22.755Z,89.63
2024-05-09T00:38:52.715Z,89.58
2024-05-09T00:41:23.042Z,89.18
2024-05-09T00:43:53.352Z,89.18
2024-05-09T00:46:24.090Z,88.74
2024-05-09T00:48:53.983Z,88.40
2024-05-09T00:51:23.889Z,88.57
2024-05-09T00:53:53.939Z,88.96
2024-05-09T00:56:24.943Z,88.71
2024-05-09T00:58:55.065Z,89.10
2024-05-09T01:01:26.611Z,88.82
2024-05-09T01:03:57.153Z,89.26
2024-05-09T01:06:27.012Z,89.54
2024-05-09T01:08:56.881Z,89.29
2024-05-09T01:11:26.742Z,89.60
2024-05-09T01:13:56.516Z,89.24
2024-05-09T01:16:26.502Z,89.39
2024-05-09T01:18:56.374Z,88.82
2024-05-09T01:21:27.062Z,88.71
2024-05-09T01:23:56.813Z,88.36
2024-05-09T01:26:50.190Z,88.15
2024-05-09T01:29:20.404Z,87.98
2024-05-09T01:31:52.389Z,87.76
2024-05-09T01:34:22.360Z,87.72
2024-05-09T01:36:52.239Z,87.55
2024-05-09T01:39:21.933Z,86.84
2024-05-09T01:41:52.045Z,86.29
2024-05-09T01:44:21.933Z,86.18
2024-05-09T01:46:52.295Z,86.32
2024-05-09T01:49:22.171Z,86.24
2024-05-09T01:51:51.968Z,85.84
2024-05-09T01:54:21.729Z,85.54
2024-05-09T01:56:51.623Z,85.46
2024-05-09T01:59:21.605Z,85.32
2024-05-09T02:01:56.821Z,85.38
2024-05-09T02:04:27.763Z,84.83
2024-05-09T02:06:57.527Z,84.77
2024-05-09T02:09:29.568Z,84.45
2024-05-09T02:11:59.604Z,84.49
2024-05-09T02:14:29.457Z,84.69
2024-05-09T02:16:59.149Z,84.07
2024-05-09T02:19:29.059Z,84.11
2024-05-09T02:21:58.823Z,84.50
2024-05-09T02:24:28.740Z,84.25
2024-05-09T02:26:58.419Z,84.41
2024-05-09T02:29:28.275Z,84.36
2024-05-09T02:31:58.240Z,84.77
2024-05-09T02:34:28.044Z,84.64
2024-05-09T02:36:56.456Z,84.88
2024-05-09T02:39:26.390Z,85.15
2024-05-09T02:41:53.465Z,84.90
2024-05-09T02:44:23.649Z,85.20
2024-05-09T02:46:50.792Z,85.19
2024-05-09T02:49:20.630Z,84.99
2024-05-09T02:51:47.765Z,85.40
2024-05-09T02:54:17.758Z,85.64
2024-05-09T02:56:44.803Z,86.13
2024-05-09T02:59:14.736Z,86.33
2024-05-09T03:01:42.177Z,85.61
2024-05-09T03:04:12.059Z,85.91
2024-05-09T03:06:43.366Z,85.85
2024-05-09T03:09:13.353Z,86.09
2024-05-09T03:11:40.850Z,85.82
2024-05-09T03:14:11.117Z,85.68
2024-05-09T03:16:38.890Z,85.79
2024-05-09T03:19:08.630Z,85.62
2024-05-09T03:21:41.154Z,85.48
2024-05-09T03:24:11.080Z,85.63
2024-05-09T03:26:38.465Z,85.68
2024-05-09T03:29:08.232Z,85.30
2024-05-09T03:31:35.260Z,85.47
2024-05-09T03:34:05.122Z,85.83
2024-05-09T03:36:32.317Z,86.18
2024-05-09T03:39:01.985Z,86.18
2024-05-09T03:41:29.233Z,86.09
2024-05-09T03:43:59.091Z,86.14
2024-05-09T03:46:28.756Z,85.92
2024-05-09T03:48:55.902Z,85.96
2024-05-09T03:51:29.380Z,85.76
2024-05-09T03:53:56.388Z,86.04
2024-05-09T03:56:26.342Z,85.28
2024-05-09T03:58:53.747Z,85.59
2024-05-09T04:01:25.316Z,85.08
2024-05-09T04:03:52.637Z,85.44
2024-05-09T04:06:26.840Z,85.46
2024-05-09T04:08:54.116Z,84.99
2024-05-09T04:11:24.108Z,84.66
2024-05-09T04:13:51.301Z,84.34
2024-05-09T04:16:21.360Z,84.49
2024-05-09T04:18:48.483Z,84.37
2024-05-09T04:21:18.226Z,83.92
2024-05-09T04:23:45.292Z,83.94
2024-05-09T04:26:15.673Z,83.89
2024-05-09T04:28:42.993Z,83.59
2024-05-09T04:31:12.760Z,83.15
2024-05-09T04:33:40.026Z,83.23
2024-05-09T04:36:10.010Z,83.08
2024-05-09T04:38:37.058Z,82.96
2024-05-09T04:41:06.902Z,83.05
2024-05-09T04:43:35.411Z,83.19
2024-05-09T04:46:05.181Z,82.70
2024-05-09T04:48:32.556Z,82.60
2024-05-09T04:51:02.684Z,82.63
2024-05-09T04:53:29.917Z,82.66
2024-05-09T04:55:59.700Z,82.44
2024-05-09T04:58:27.005Z,82.54
2024-05-09T05:00:56.842Z,82.29
2024-05-09T05:03:24.094Z,82.06
2024-05-09T05:05:54.150Z,82.29
2024-05-09T05:08:25.413Z,82.80
2024-05-09T05:10:55.644Z,82.63
2024-05-09T05:13:24.157Z,82.91
2024-05-09T05:15:58.754Z,82.49
2024-05-09T05:18:29.436Z,82.67
2024-05-09T05:20:59.997Z,82.62
2024-05-09T05:23:27.235Z,82.59
2024-05-09T05:25:57.372Z,82.67
2024-05-09T05:28:24.482Z,82.61
2024-05-09T05:30:54.302Z,82.64
2024-05-09T05:33:23.005Z,82.18
2024-05-09T05:35:53.316Z,82.60
2024-05-09T05:38:22.845Z,82.73
2024-05-09T05:40:54.691Z,82.18
2024-05-09T05:43:25.034Z,82.63
2024-05-09T05:45:54.803Z,82.29
2024-05-09T05:48:22.166Z,82.52
2024-05-09T05:50:52.172Z,82.67
2024-05-09T05:53:19.662Z,82.50
2024-05-09T05:55:49.440Z,82.51
2024-05-09T05:58:16.558Z,82.00
2024-05-09T06:00:46.499Z,81.44
2024-05-09T06:03:14.270Z,81.40
2024-05-09T06:05:46.207Z,81.43
2024-05-09T06:08:13.435Z,81.02
2024-05-09T06:10:43.507Z,80.22
2024-05-09T06:13:11.794Z,80.36
2024-05-09T06:15:43.434Z,79.26
2024-05-09T06:18:12.598Z,79.87
2024-05-09T06:20:46.135Z,79.24
2024-05-09T06:23:14.767Z,79.58
2024-05-09T06:25:45.071Z,79.15
2024-05-09T06:28:12.124Z,78.23
2024-05-09T06:30:43.141Z,78.57
2024-05-09T06:33:13.403Z,78.46
2024-05-09T06:35:45.420Z,77.41
2024-05-09T06:38:12.811Z,77.81
2024-05-09T06:40:44.207Z,76.43
2024-05-09T06:43:16.883Z,76.33
2024-05-09T06:45:49.296Z,75.34
2024-05-09T06:48:22.139Z,75.33
2024-05-09T06:50:53.168Z,74.37
2024-05-09T06:53:23.492Z,72.62
2024-05-09T06:55:53.303Z,72.85
2024-05-09T06:58:20.326Z,72.63
2024-05-09T07:00:50.222Z,71.29
2024-05-09T07:03:18.797Z,71.77
2024-05-09T07:05:50.269Z,71.31
2024-05-09T07:08:18.667Z,71.70
2024-05-09T07:10:49.038Z,71.50
2024-05-09T07:13:16.250Z,70.31
2024-05-09T07:15:46.374Z,70.93
2024-05-09T07:18:18.484Z,72.05
2024-05-09T07:20:50.635Z,73.16
2024-05-09T07:23:21.268Z,73.83
2024-05-09T07:25:51.306Z,73.92
2024-05-09T07:28:20.042Z,73.88
2024-05-09T07:30:50.327Z,74.72
2024-05-09T07:33:22.859Z,74.87
2024-05-09T07:35:53.986Z,74.06
2024-05-09T07:38:21.151Z,74.17
2024-05-09T07:40:51.398Z,75.06
2024-05-09T07:43:18.898Z,74.51
2024-05-09T07:45:53.689Z,75.41
2024-05-09T07:53:39.901Z,75.12
2024-05-09T07:56:14.697Z,75.42
2024-05-09T07:58:43.794Z,75.64
2024-05-09T08:01:13.583Z,75.40
2024-05-09T08:03:40.887Z,74.79
2024-05-09T08:06:10.737Z,74.42
2024-05-09T08:08:38.300Z,74.32
2024-05-09T08:11:09.295Z,74.07
2024-05-09T08:13:37.593Z,71.18
2024-05-09T08:16:10.806Z,70.44
2024-05-09T08:18:40.683Z,70.49
2024-05-09T08:21:07.779Z,69.56
2024-05-09T08:23:37.780Z,68.75
2024-05-09T08:26:05.142Z,68.08
2024-05-09T08:28:35.169Z,68.31
2024-05-09T08:31:06.046Z,68.80
2024-05-09T08:33:37.066Z,68.03
2024-05-09T08:36:04.698Z,67.59
2024-05-09T08:38:34.371Z,67.75
2024-05-09T08:41:04.293Z,68.05
2024-05-09T08:43:34.038Z,67.69
2024-05-09T08:46:04.401Z,67.60
2024-05-09T08:48:37.429Z,67.86
2024-05-09T08:51:05.887Z,67.26
2024-05-09T08:53:36.280Z,67.66
2024-05-09T08:56:03.543Z,68.05
2024-05-09T08:58:34.713Z,68.96
2024-05-09T09:01:04.237Z,69.65
2024-05-09T09:03:40.079Z,69.71
2024-05-09T09:06:10.954Z,70.10
2024-05-09T09:08:43.157Z,69.86
2024-05-09T09:11:11.087Z,69.20
2024-05-09T09:13:41.772Z,69.71
2024-05-09T09:16:08.872Z,69.41
2024-05-09T09:18:39.028Z,69.71
2024-05-09T09:21:18.730Z,70.13
2024-05-09T09:23:45.797Z,70.43
2024-05-09T09:26:19.619Z,71.41
2024-05-09T09:28:47.827Z,71.73
2024-05-09T09:31:23.665Z,72.35
2024-05-09T09:33:51.240Z,73.01
2024-05-09T09:36:21.369Z,73.80
2024-05-09T09:38:48.437Z,75.34
2024-05-09T09:41:20.877Z,75.75
2024-05-09T09:43:51.011Z,76.43
2024-05-09T09:46:22.370Z,77.83
2024-05-09T09:48:49.766Z,78.07
2024-05-09T09:51:19.906Z,79.12
2024-05-09T09:53:49.334Z,78.73
2024-05-09T09:56:21.471Z,78.69
2024-05-09T09:58:49.213Z,78.92
2024-05-09T10:01:18.983Z,79.41
2024-05-09T10:03:46.501Z,79.09
2024-05-09T10:06:17.190Z,79.07
2024-05-09T10:08:48.180Z,79.46
2024-05-09T10:11:23.092Z,79.11
2024-05-09T10:13:52.056Z,78.49
2024-05-09T10:16:25.079Z,77.84
2024-05-09T10:18:52.427Z,76.95
2024-05-09T10:21:23.232Z,75.57
2024-05-09T10:24:07.177Z,74.86
2024-05-09T10:26:36.816Z,73.31
2024-05-09T10:29:19.506Z,71.97
2024-05-09T10:31:47.713Z,71.33
2024-05-09T10:34:21.717Z,70.42
2024-05-09T10:36:53.604Z,69.95
2024-05-09T10:39:28.485Z,68.28
2024-05-09T10:41:58.235Z,66.62
2024-05-09T10:44:30.745Z,65.53
2024-05-09T10:46:58.039Z,65.51
2024-05-09T10:49:29.459Z,63.34
2024-05-09T10:51:56.535Z,63.41
2024-05-09T10:54:39.289Z,63.46
2024-05-09T10:57:07.419Z,63.80
2024-05-09T10:59:42.668Z,62.90
2024-05-09T11:02:11.096Z,63.48
2024-05-09T11:04:48.236Z,62.32
2024-05-09T11:07:17.606Z,61.95
2024-05-09T11:09:48.862Z,60.81
2024-05-09T11:12:16.174Z,60.89
2024-05-09T11:14:56.164Z,60.15
2024-05-09T11:17:26.304Z,59.15
2024-05-09T11:19:56.468Z,58.23
2024-05-09T11:22:25.322Z,58.59
2024-05-09T11:24:55.740Z,57.03
2024-05-09T11:27:23.932Z,56.74
2024-05-09T11:29:53.702Z,56.10
2024-05-09T11:32:30.071Z,55.57
2024-05-09T11:35:00.202Z,55.54
2024-05-09T11:37:27.527Z,53.75
2024-05-09T11:39:57.806Z,53.63
2024-05-09T11:42:25.864Z,53.60
2024-05-09T11:44:55.521Z,54.19
2024-05-09T11:47:22.907Z,53.62
2024-05-09T11:49:52.884Z,53.86
2024-05-09T11:52:19.992Z,54.33
2024-05-09T11:54:49.797Z,53.82
2024-05-09T11:57:19.298Z,54.67
2024-05-09T11:59:49.006Z,54.13
2024-05-09T12:02:16.106Z,54.58
2024-05-09T12:04:47.020Z,55.03
2024-05-09T12:07:14.606Z,55.21
2024-05-09T12:09:44.848Z,54.12
2024-05-09T12:12:15.584Z,53.90
2024-05-09T12:14:45.817Z,53.97
2024-05-09T12:17:13.337Z,52.82
2024-05-09T12:19:43.589Z,53.09
2024-05-09T12:22:10.858Z,52.68
2024-05-09T12:24:40.778Z,51.29
2024-05-09T12:27:10.916Z,51.05
2024-05-09T12:29:41.173Z,51.14
2024-05-09T12:32:08.374Z,51.11
2024-05-09T12:34:38.520Z,51.78
2024-05-09T12:37:05.978Z,51.67
2024-05-09T12:39:35.732Z,51.26
2024-05-09T12:42:05.530Z,50.87
2024-05-09T12:44:35.365Z,51.03
2024-05-09T12:47:05.281Z,51.42
2024-05-09T12:49:33.248Z,50.13
2024-05-09T12:52:03.309Z,50.14
2024-05-09T12:54:32.060Z,49.38
2024-05-09T12:57:02.545Z,48.78
2024-05-09T12:59:29.607Z,49.08
2024-05-09T13:02:01.104Z,47.81
2024-05-09T13:04:28.415Z,48.61
2024-05-09T13:07:00.719Z,48.97
2024-05-09T13:09:28.500Z,48.94
2024-05-09T13:11:58.404Z,49.50
2024-05-09T13:14:25.436Z,50.09
2024-05-09T13:16:55.303Z,50.27
2024-05-09T13:19:22.581Z,50.37
2024-05-09T13:21:53.311Z,50.83
2024-05-09T13:24:20.442Z,50.46
2024-05-09T13:26:50.232Z,50.72
2024-05-09T13:29:17.574Z,51.79
2024-05-09T13:31:47.186Z,52.49
2024-05-09T13:34:14.337Z,52.45
2024-05-09T13:36:44.087Z,53.80
2024-05-09T13:39:11.319Z,54.23
2024-05-09T13:41:41.041Z,55.10
2024-05-09T13:44:08.193Z,55.49
2024-05-09T13:46:38.101Z,55.90
2024-05-09T13:49:06.286Z,56.54
2024-05-09T13:51:37.083Z,57.44
2024-05-09T13:54:04.174Z,57.32
2024-05-09T13:56:34.196Z,56.82
2024-05-09T13:59:01.391Z,57.14
2024-05-09T14:01:31.316Z,56.99
2024-05-09T14:03:58.560Z,57.92
2024-05-09T14:06:28.594Z,58.12
2024-05-09T14:08:58.499Z,58.68
2024-05-09T14:11:28.523Z,59.65
2024-05-09T14:13:55.929Z,59.56
2024-05-09T14:16:26.033Z,59.68
2024-05-09T14:18:56.362Z,59.70
2024-05-09T14:21:26.280Z,60.20
2024-05-09T14:23:56.312Z,61.00
2024-05-09T14:26:27.245Z,61.36
2024-05-09T14:28:54.564Z,61.23
2024-05-09T14:31:24.554Z,61.82
2024-05-09T14:33:51.686Z,61.99
2024-05-09T14:36:21.492Z,62.83
2024-05-09T14:38:51.341Z,63.39
2024-05-09T14:41:26.481Z,63.59
2024-05-09T14:43:57.903Z,64.06
2024-05-09T14:46:27.911Z,64.35
2024-05-09T14:48:55.692Z,64.49
2024-05-09T14:51:25.495Z,64.82
2024-05-09T14:53:52.562Z,65.29
2024-05-09T14:56:26.051Z,65.35
2024-05-09T14:58:55.378Z,65.83
2024-05-09T15:01:25.203Z,66.03
2024-05-09T15:03:54.131Z,66.82
2024-05-09T15:06:24.198Z,66.71
2024-05-09T15:08:56.774Z,67.37
2024-05-09T15:11:30.580Z,67.92
2024-05-09T15:13:58.183Z,69.01
2024-05-09T15:16:29.044Z,68.75
2024-05-09T15:18:56.530Z,69.58
2024-05-09T15:21:26.494Z,70.03
2024-05-09T15:23:53.549Z,70.41
2024-05-09T15:26:23.832Z,70.70
2024-05-09T15:28:53.762Z,70.34
2024-05-09T15:31:23.514Z,70.76
2024-05-09T15:33:56.954Z,70.65
2024-05-09T15:36:26.821Z,71.41
2024-05-09T15:39:07.658Z,71.48
2024-05-09T15:41:37.758Z,71.84
2024-05-09T15:44:05.069Z,71.26
2024-05-09T15:46:34.874Z,70.57
2024-05-09T15:49:02.339Z,70.45
2024-05-09T15:51:32.168Z,70.97
2024-05-09T15:53:59.161Z,71.13
2024-05-09T15:56:28.986Z,70.66
2024-05-09T15:59:02.720Z,71.99
2024-05-09T16:01:32.677Z,71.96
2024-05-09T16:04:00.019Z,72.54
2024-05-09T16:06:30.034Z,71.99
2024-05-09T16:08:57.189Z,72.51
2024-05-09T16:11:27.100Z,73.25
2024-05-09T16:13:57.231Z,73.46
2024-05-09T16:16:27.781Z,74.04
2024-05-09T16:18:55.087Z,73.71
2024-05-09T16:21:27.527Z,73.69
2024-05-09T16:23:54.802Z,73.93
2024-05-09T16:26:24.617Z,74.39
2024-05-09T16:28:54.007Z,74.57
2024-05-09T16:31:24.616Z,74.65
2024-05-09T16:33:52.883Z,74.54
2024-05-09T16:36:22.971Z,75.30
2024-05-09T16:38:50.049Z,75.88
2024-05-09T16:41:22.812Z,76.37
2024-05-09T16:43:52.462Z,76.26
2024-05-09T16:46:22.409Z,76.55
2024-05-09T16:48:50.398Z,76.95
2024-05-09T16:51:20.130Z,76.73
2024-05-09T16:53:50.127Z,77.02
2024-05-09T16:56:20.362Z,77.32
2024-05-09T16:58:47.617Z,77.35
2024-05-09T17:01:17.426Z,77.44
2024-05-09T17:03:44.770Z,77.78
2024-05-09T17:06:14.941Z,77.85
2024-05-09T17:08:43.957Z,77.79
2024-05-09T17:11:15.577Z,77.52
2024-05-09T17:13:48.218Z,77.71
2024-05-09T17:16:19.194Z,78.02
2024-05-09T17:18:50.621Z,77.89
2024-05-09T17:21:17.779Z,78.17
2024-05-09T17:23:47.481Z,78.58
2024-05-09T17:26:17.241Z,78.74
2024-05-09T17:28:44.398Z,78.62
2024-05-09T17:31:14.638Z,78.76
2024-05-09T17:33:42.828Z,78.95
2024-05-09T17:36:12.833Z,79.17
2024-05-09T17:38:40.121Z,79.53
2024-05-09T17:41:09.766Z,79.61
2024-05-09T17:43:41.654Z,79.89
2024-05-09T17:46:13.946Z,79.92
2024-05-09T17:48:41.338Z,79.97
2024-05-09T17:51:15.072Z,80.16
2024-05-09T17:53:42.229Z,80.55
2024-05-09T17:56:12.719Z,80.46
2024-05-09T17:58:39.907Z,80.27
2024-05-09T18:01:10.015Z,80.61
2024-05-09T18:03:37.570Z,80.76
2024-05-09T18:06:07.472Z,80.74
2024-05-09T18:08:34.727Z,81.28
2024-05-09T18:11:04.691Z,81.10
2024-05-09T18:13:33.131Z,81.11
2024-05-09T18:16:02.901Z,81.17
2024-05-09T18:18:30.192Z,81.69
2024-05-09T18:21:00.254Z,81.98
2024-05-09T18:23:27.308Z,82.35
2024-05-09T18:25:58.032Z,82.34
2024-05-09T18:28:29.258Z,82.22
2024-05-09T18:30:59.026Z,82.48
2024-05-09T18:33:26.284Z,82.53
2024-05-09T18:35:59.087Z,82.31
2024-05-09T18:38:29.563Z,82.15
2024-05-09T18:41:00.412Z,82.16
2024-05-09T18:43:38.183Z,82.38
2024-05-09T18:46:13.891Z,82.20
2024-05-09T18:48:45.975Z,82.35
2024-05-09T18:51:16.104Z,82.21
2024-05-09T18:53:46.300Z,82.32
2024-05-09T18:56:24.546Z,81.83
2024-05-09T18:58:54.219Z,82.02
2024-05-09T19:01:21.382Z,82.21
2024-05-09T19:03:51.256Z,82.33
2024-05-09T19:06:24.514Z,83.33
2024-05-09T19:08:54.607Z,83.98
2024-05-09T19:11:24.502Z,84.61
2024-05-09T19:13:54.267Z,85.32
2024-05-09T19:16:21.726Z,86.18
2024-05-09T19:18:51.951Z,86.66
2024-05-09T19:21:20.316Z,87.46
2024-05-09T19:23:52.348Z,87.78
2024-05-09T19:26:19.715Z,88.55
2024-05-09T19:28:49.440Z,88.69
2024-05-09T19:31:16.632Z,88.95
2024-05-09T19:33:49.242Z,88.99
2024-05-09T19:36:19.494Z,89.40
2024-05-09T19:38:54.200Z,89.64
2024-05-09T19:41:22.083Z,89.98
2024-05-09T19:43:51.981Z,90.10
2024-05-09T19:46:19.553Z,90.69
2024-05-09T19:48:49.869Z,91.09
2024-05-09T19:51:17.370Z,91.16
2024-05-09T19:53:47.277Z,91.02
2024-05-09T19:56:14.444Z,91.09
2024-05-09T19:58:44.291Z,91.24
2024-05-09T20:01:11.469Z,91.34
2024-05-09T20:03:44.358Z,91.61
2024-05-09T20:06:11.535Z,92.00
2024-05-09T20:08:41.243Z,92.36
2024-05-09T20:11:17.239Z,92.54
2024-05-09T20:13:49.236Z,92.82
2024-05-09T20:16:16.686Z,93.12
2024-05-09T20:18:51.113Z,93.28
2024-05-09T20:21:18.327Z,93.43
2024-05-09T20:23:50.102Z,93.86
2024-05-09T20:26:17.287Z,94.03
2024-05-09T20:28:47.472Z,93.90
2024-05-09T20:31:21.138Z,94.27
2024-05-09T20:33:54.001Z,94.33
2024-05-09T20:36:21.042Z,94.56
2024-05-09T20:38:50.869Z,94.86
2024-05-09T20:41:18.014Z,94.90
2024-05-09T20:43:47.981Z,94.66
2024-05-09T20:46:15.778Z,94.80
2024-05-09T20:48:45.735Z,94.72
2024-05-09T20:51:12.980Z,94.99
2024-05-09T20:53:53.228Z,95.26
2024-05-09T20:56:23.503Z,95.47
2024-05-09T20:58:53.425Z,95.07
2024-05-09T21:01:20.604Z,95.17
2024-05-09T21:03:50.463Z,95.22
2024-05-09T21:06:17.804Z,95.32
2024-05-09T21:08:47.672Z,95.43
2024-05-09T21:11:15.436Z,95.50
2024-05-09T21:13:45.464Z,95.23
2024-05-09T21:16:12.547Z,95.39
2024-05-09T21:18:42.663Z,95.62
2024-05-09T21:21:10.039Z,95.55
2024-05-09T21:23:40.531Z,95.79
2024-05-09T21:26:07.651Z,96.15
2024-05-09T21:28:37.459Z,95.92
2024-05-09T21:31:04.870Z,96.08
2024-05-09T21:33:34.745Z,96.10
2024-05-09T21:36:01.913Z,96.17
2024-05-09T21:38:31.771Z,96.03
2024-05-09T21:40:58.968Z,96.40
2024-05-09T21:43:31.711Z,96.17
2024-05-09T21:45:59.648Z,96.00
2024-05-09T21:48:29.400Z,96.11
2024-05-09T21:50:56.704Z,96.24
2024-05-09T21:53:26.623Z,96.32
2024-05-09T21:55:53.678Z,96.63
2024-05-09T21:58:23.773Z,96.58
2024-05-09T22:00:51.127Z,96.52
2024-05-09T22:03:21.017Z,96.93
2024-05-09T22:05:57.705Z,96.85
2024-05-09T22:08:27.483Z,96.88
2024-05-09T22:10:54.859Z,96.84
2024-05-09T22:13:25.124Z,97.05
2024-05-09T22:15:52.437Z,96.82
2024-05-09T22:18:22.398Z,96.67
2024-05-09T22:20:49.523Z,96.78
2024-05-09T22:23:22.443Z,96.69
2024-05-09T22:25:49.552Z,96.84
2024-05-09T22:28:23.083Z,96.90
2024-05-09T22:30:50.765Z,96.72
2024-05-09T22:33:20.659Z,96.62
2024-05-09T22:35:48.269Z,96.92
2024-05-09T22:38:18.182Z,96.87
2024-05-09T22:40:48.579Z,96.59
2024-05-09T22:43:23.218Z,96.81
2024-05-09T22:45:53.305Z,96.38
2024-05-09T22:48:23.950Z,96.65
2024-05-09T22:50:52.042Z,96.58
2024-05-09T22:53:21.994Z,96.73
2024-05-09T22:55:49.119Z,96.58
2024-05-09T22:58:19.220Z,96.41
2024-05-09T23:00:46.521Z,96.33
2024-05-09T23:03:18.970Z,96.51
2024-05-09T23:05:46.198Z,96.54
2024-05-09T23:08:16.361Z,96.25
2024-05-09T23:10:46.126Z,96.58
2024-05-09T23:13:16.155Z,96.35
2024-05-09T23:15:43.582Z,96.52
2024-05-09T23:18:13.510Z,96.44
2024-05-09T23:20:40.735Z,96.50
2024-05-09T23:23:12.319Z,96.49
2024-05-09T23:25:41.643Z,96.54
2024-05-09T23:28:11.954Z,96.41
2024-05-09T23:30:41.113Z,96.21
2024-05-09T23:33:15.603Z,96.45
2024-05-09T23:35:44.191Z,96.35
2024-05-09T23:38:18.412Z,96.38
2024-05-09T23:40:46.827Z,96.38
2024-05-09T23:43:16.961Z,96.24
2024-05-09T23:45:44.179Z,96.35
2024-05-09T23:48:14.211Z,96.27
2024-05-09T23:50:41.905Z,96.20
2024-05-09T23:53:11.932Z,96.08
2024-05-09T23:55:39.559Z,95.89
2024-05-09T23:58:11.465Z,96.10
